Date,TemperatureHighF,TemperatureAvgF,TemperatureLowF,DewpointHighF,DewpointAvgF,DewpointLowF,HumidityHigh,HumidityAvg,HumidityLow,PressureMaxIn,PressureMinIn,WindSpeedMaxMPH,WindSpeedAvgMPH,GustSpeedMaxMPH,PrecipitationSumIn
2012-1-1,48.0,39.4,30.0,40.0,28.8,17.0,90,67,43,30.16,29.59,36,16,49,0.03
2012-1-2,30.0,23.6,19.0,19.0,13.0,8.0,80,64,53,30.39,30.12,25,14,36,0.01
2012-1-3,28.0,21.1,13.0,15.0,9.8,6.0,78,62,45,30.47,30.11,14,4,21,0.00
2012-1-4,46.0,34.5,26.0,29.0,22.4,15.0,75,61,47,30.12,29.93,10,4,23,0.00
2012-1-5,51.0,38.8,26.0,36.0,29.1,22.0,85,69,53,30.07,29.79,8,1,18,0.00
2012-1-6,57.0,46.7,40.0,38.0,34.2,31.0,78,62,46,29.79,29.67,8,2,18,0.00
2012-1-7,45.0,38.9,32.0,33.0,28.8,27.0,80,67,54,30.20,29.77,16,4,24,0.00
2012-1-8,42.0,34.3,25.0,28.0,25.4,22.0,90,71,50,30.34,30.19,5,0,10,0.00
2012-1-9,49.0,36.4,24.0,29.0,24.7,20.0,88,65,36,30.25,30.01,12,1,20,0.00
2012-1-10,54.0,38.8,27.0,33.0,27.7,23.0,85,66,41,30.07,29.79,6,1,10,0.00
2012-1-11,45.0,39.6,32.0,38.0,33.4,27.0,87,78,71,29.79,29.45,13,2,20,0.02
2012-1-12,35.0,22.9,14.0,32.0,18.8,9.0,90,84,76,29.67,29.45,18,8,35,0.01
2012-1-13,19.0,16.0,12.0,13.0,10.7,7.0,85,79,74,30.11,29.67,18,5,31,0.00
2012-1-14,23.0,16.6,10.0,15.0,10.1,5.0,83,76,64,30.29,30.08,5,0,14,0.01
2012-1-15,34.0,23.7,7.0,24.0,16.3,3.0,86,73,60,30.41,30.06,20,7,26,0.01
2012-1-16,55.0,45.3,33.0,52.0,38.2,24.0,89,76,65,30.06,29.66,17,9,31,0.00
2012-1-17,57.0,39.1,21.0,55.0,35.0,14.0,95,85,71,30.26,29.52,25,10,43,1.14
2012-1-18,27.0,21.1,13.0,19.0,13.3,8.0,82,72,62,30.33,29.96,11,4,24,0.01
2012-1-19,29.0,19.8,6.0,25.0,12.5,-5.0,86,73,60,30.20,29.84,21,6,29,0.00
2012-1-20,19.0,14.0,5.0,15.0,6.8,-6.0,86,73,59,30.23,29.96,10,4,21,0.00
2012-1-21,23.0,19.4,15.0,18.0,13.9,10.0,85,79,70,30.24,29.98,12,5,20,0.05
2012-1-22,55.0,34.1,23.0,54.0,32.2,19.0,97,93,83,30.11,29.44,20,9,33,0.33
2012-1-23,50.0,39.6,32.0,49.0,35.2,24.0,96,84,73,29.98,29.39,25,7,44,0.57
2012-1-24,35.0,31.3,26.0,26.0,24.0,22.0,86,74,64,30.36,29.98,11,3,24,0.00
2012-1-25,33.0,29.6,25.0,31.0,26.8,22.0,93,89,80,30.34,30.02,6,0,10,0.15
2012-1-26,35.0,33.8,32.0,34.0,32.5,30.0,95,95,93,30.01,29.61,13,2,18,0.91
2012-1-27,41.0,36.3,33.0,34.0,30.5,28.0,95,80,60,30.01,29.64,14,4,20,0.01
2012-1-28,37.0,33.7,29.0,32.0,24.3,18.0,91,69,45,30.20,29.89,22,6,38,0.02
2012-1-29,36.0,31.6,24.0,23.0,20.7,17.0,83,64,47,30.26,30.02,28,6,45,0.01
2012-1-30,54.0,40.9,23.0,39.0,30.1,19.0,85,66,53,30.24,29.91,16,7,26,0.00
2012-1-31,60.0,51.2,44.0,51.0,41.6,33.0,87,70,58,29.95,29.83,14,6,29,0.01
2012-2-1,54.0,43.7,35.0,50.0,39.0,33.0,92,84,65,30.13,29.90,11,2,18,0.01
2012-2-2,46.0,35.7,30.0,40.0,33.2,28.0,96,91,77,30.37,30.13,5,0,9,0.00
2012-2-3,54.0,41.2,30.0,40.0,34.9,28.0,95,80,53,30.41,30.23,9,1,18,0.01
2012-2-4,43.0,39.2,36.0,39.0,36.6,34.0,93,90,85,30.25,30.05,20,7,20,0.32
2012-2-5,45.0,35.5,29.0,36.0,30.8,27.0,95,84,58,30.27,30.13,8,2,14,0.07
2012-2-6,33.0,29.6,24.0,31.0,27.0,22.0,94,90,84,30.25,30.16,7,1,14,0.01
2012-2-7,36.0,32.3,30.0,31.0,28.0,25.0,90,84,77,30.31,30.17,10,3,18,0.01
2012-2-8,33.0,30.2,27.0,30.0,26.3,20.0,93,85,72,30.37,30.29,12,4,20,0.03
2012-2-9,36.0,29.7,21.0,24.0,20.4,16.0,83,68,54,30.35,30.15,9,1,16,0.01
2012-2-10,34.0,33.1,32.0,32.0,29.0,24.0,91,85,72,30.14,29.91,7,1,15,0.03
2012-2-11,34.0,24.4,12.0,31.0,14.5,2.0,90,67,46,30.41,29.91,24,8,33,0.02
2012-2-12,36.0,24.6,16.0,18.0,9.8,3.0,64,53,40,30.42,30.27,13,6,26,0.00
2012-2-13,34.0,27.3,18.0,26.0,16.1,10.0,91,65,38,30.27,29.88,15,3,30,0.00
2012-2-14,35.0,32.2,28.0,31.0,28.8,25.0,92,88,82,30.04,29.83,7,1,18,0.15
2012-2-15,41.0,37.1,31.0,39.0,33.9,28.0,94,88,78,30.10,29.95,15,5,24,0.02
2012-2-16,46.0,39.8,31.0,40.0,35.8,26.0,95,86,69,30.16,29.91,16,4,26,0.11
2012-2-17,50.0,37.6,25.0,33.0,28.2,22.0,91,71,44,30.19,30.02,12,2,16,0.01
2012-2-18,40.0,34.4,28.0,31.0,25.7,21.0,85,71,54,30.16,30.02,18,5,24,0.01
2012-2-19,37.0,30.2,24.0,23.0,21.0,19.0,83,69,53,30.19,30.09,14,4,21,0.00
2012-2-20,44.0,33.7,20.0,25.0,21.2,16.0,88,63,37,30.30,29.88,17,4,23,0.00
2012-2-21,45.0,41.7,36.0,41.0,35.3,24.0,89,79,50,29.88,29.64,14,4,24,0.14
2012-2-22,55.0,43.0,35.0,37.0,32.0,29.0,85,67,47,29.73,29.35,12,1,20,0.01
2012-2-23,45.0,39.6,32.0,39.0,35.2,28.0,90,84,77,29.50,29.29,14,3,20,0.04
2012-2-24,41.0,36.2,29.0,39.0,28.9,17.0,91,75,58,30.01,29.34,28,12,43,0.01
2012-2-25,31.0,26.9,23.0,20.0,15.9,13.0,74,63,52,30.32,30.01,21,7,30,0.01
2012-2-26,52.0,37.2,23.0,27.0,21.4,16.0,77,55,33,30.32,30.04,19,6,39,0.00
2012-2-27,46.0,39.5,29.0,31.0,23.0,20.0,74,52,38,30.46,30.07,14,5,26,0.00
2012-2-28,53.0,40.9,26.0,40.0,26.6,21.0,81,60,34,30.46,29.77,7,2,20,0.05
2012-2-29,66.0,59.4,48.0,57.0,43.4,24.0,93,62,22,29.72,29.44,26,9,43,0.14
2012-3-1,51.0,40.5,36.0,32.0,29.2,26.0,73,64,46,29.88,29.70,13,5,39,0.03
2012-3-2,54.0,42.1,34.0,50.0,35.0,30.0,93,76,64,29.70,29.17,28,6,46,0.47
2012-3-3,35.0,32.7,30.0,30.0,24.4,21.0,85,71,62,29.87,29.66,16,7,29,0.01
2012-3-4,39.0,31.1,25.0,25.0,21.4,19.0,88,68,48,29.95,29.83,17,5,24,0.00
2012-3-5,36.0,30.0,23.0,24.0,20.9,16.0,85,69,58,30.39,29.95,14,5,24,0.01
2012-3-6,66.0,49.9,32.0,38.0,30.2,23.0,68,48,31,30.27,29.97,26,13,40,0.01
2012-3-7,66.0,60.0,53.0,51.0,39.3,27.0,66,47,31,30.06,29.85,24,14,44,0.00
2012-3-8,62.0,45.1,35.0,55.0,35.9,25.0,89,71,50,30.32,29.82,27,8,30,0.24
2012-3-9,44.0,36.6,30.0,26.0,17.0,7.0,70,47,24,30.51,30.29,21,7,30,0.01
2012-3-10,56.0,41.4,28.0,29.0,21.3,-99.9,64,48,33,30.50,30.26,16,3,25,0.00
2012-3-11,66.0,53.9,37.0,42.0,32.5,24.0,61,45,35,30.28,30.01,17,5,26,0.00
2012-3-12,74.0,63.3,54.0,58.0,53.8,43.0,91,73,50,30.02,29.72,25,10,36,0.10
2012-3-13,77.0,61.9,46.0,54.0,46.9,41.0,93,62,29,30.05,29.89,7,1,15,0.01
2012-3-14,80.0,68.6,56.0,61.0,56.3,49.0,85,66,49,30.05,29.91,16,4,25,0.00
2012-3-15,80.0,70.3,63.0,61.0,59.1,55.0,82,69,47,30.02,29.91,10,3,24,0.00
2012-3-16,79.0,67.7,58.0,58.0,54.7,50.0,87,66,36,30.05,29.96,8,2,18,0.00
2012-3-17,78.0,67.2,57.0,61.0,57.6,54.0,92,73,55,30.06,29.93,13,4,21,0.05
2012-3-18,80.0,68.6,59.0,63.0,58.5,55.0,89,72,50,30.06,29.91,11,2,23,0.07
2012-3-19,81.0,73.0,65.0,60.0,57.9,52.0,78,60,44,29.99,29.85,15,6,29,0.01
2012-3-20,82.0,74.6,69.0,57.0,53.2,-99.9,60,49,37,29.99,29.89,25,8,36,0.00
2012-3-21,84.0,74.9,64.0,57.0,54.1,49.0,72,50,30,30.05,29.93,16,4,25,0.00
2012-3-22,79.0,70.1,62.0,59.0,54.0,-99.9,73,58,43,30.02,29.93,13,-5,21,0.00
2012-3-23,71.0,61.8,53.0,62.0,56.3,48.0,94,83,58,29.94,29.71,9,1,30,0.79
2012-3-24,64.0,57.0,51.0,55.0,52.0,49.0,94,84,68,29.87,29.71,9,1,20,0.01
2012-3-25,70.0,59.2,52.0,57.0,52.7,49.0,94,80,58,30.04,29.86,14,3,18,0.00
2012-3-26,56.0,49.9,45.0,51.0,37.2,32.0,85,63,42,30.26,30.04,14,4,23,0.00
2012-3-27,72.0,54.9,39.0,46.0,35.2,26.0,64,49,31,30.22,29.83,16,6,29,0.00
2012-3-28,75.0,65.8,52.0,56.0,44.0,34.0,81,49,25,29.95,29.79,18,5,33,0.00
2012-3-29,62.0,51.8,41.0,49.0,40.6,36.0,82,67,44,30.06,29.88,4,0,15,0.04
2012-3-30,75.0,60.7,47.0,60.0,49.2,41.0,80,67,44,29.87,29.62,16,5,30,0.03
2012-3-31,61.0,49.9,42.0,46.0,42.2,38.0,87,76,57,29.91,29.78,13,3,18,0.00
2012-4-1,83.0,63.7,50.0,63.0,54.5,44.0,94,74,50,29.80,29.54,16,3,29,0.25
2012-4-2,70.0,61.8,52.0,56.0,50.2,45.0,82,67,50,29.83,29.63,8,3,18,0.15
2012-4-3,87.0,67.7,53.0,61.0,50.4,43.0,71,56,33,29.83,29.68,14,2,24,0.00
2012-4-4,69.0,57.7,49.0,53.0,45.0,33.0,82,64,29,29.83,29.72,17,6,31,0.00
2012-4-5,60.0,50.5,40.0,37.0,32.8,28.0,74,52,30,30.06,29.77,16,5,30,0.00
2012-4-6,61.0,46.7,34.0,33.0,29.6,26.0,78,55,27,30.23,30.05,8,2,16,0.00
2012-4-7,67.0,53.5,39.0,39.0,31.2,26.0,77,47,22,30.27,30.10,9,2,16,0.00
2012-4-8,67.0,56.7,46.0,46.0,31.6,21.0,87,45,18,30.26,30.06,23,6,31,0.00
2012-4-9,66.0,57.1,49.0,35.0,25.4,20.0,54,31,18,30.06,29.90,21,7,39,0.00
2012-4-10,52.0,44.1,35.0,23.0,19.8,16.0,61,39,26,30.11,29.95,26,9,35,0.00
2012-4-11,55.0,42.4,29.0,26.0,23.0,20.0,72,48,28,30.24,30.11,16,5,24,0.00
2012-4-12,63.0,46.8,31.0,35.0,28.9,24.0,87,54,25,30.28,30.09,5,1,14,0.00
2012-4-13,62.0,51.9,40.0,40.0,34.0,28.0,70,52,28,30.16,30.01,14,4,26,0.01
2012-4-14,62.0,57.6,54.0,60.0,51.6,38.0,95,82,51,30.01,29.77,8,3,20,0.35
2012-4-15,75.0,68.8,62.0,62.0,58.6,55.0,93,70,61,29.77,29.59,17,9,33,0.02
2012-4-16,72.0,57.6,47.0,60.0,48.5,41.0,93,72,54,30.20,29.59,14,6,39,0.46
2012-4-17,63.0,51.6,40.0,43.0,39.1,36.0,93,67,36,30.33,30.20,12,3,24,0.09
2012-4-18,70.0,57.4,42.0,45.0,41.0,37.0,82,57,36,30.23,29.96,9,2,21,0.00
2012-4-19,76.0,64.9,53.0,49.0,44.2,40.0,74,51,28,29.97,29.71,8,3,21,0.00
2012-4-20,65.0,54.4,43.0,53.0,45.7,38.0,92,74,48,29.91,29.62,14,6,23,0.30
2012-4-21,55.0,46.9,42.0,38.0,35.5,32.0,83,66,45,29.97,29.91,13,7,26,0.01
2012-4-22,54.0,46.1,39.0,39.0,32.0,23.0,81,60,35,30.01,29.89,18,7,36,0.00
2012-4-23,60.0,48.0,35.0,29.0,25.5,22.0,67,44,26,29.99,29.78,14,8,38,0.00
2012-4-24,60.0,51.1,40.0,43.0,32.9,20.0,73,53,23,29.79,29.65,10,2,18,0.00
2012-4-25,74.0,61.9,50.0,58.0,50.2,42.0,80,66,49,29.70,29.51,6,2,21,0.00
2012-4-26,67.0,58.3,42.0,59.0,46.3,21.0,89,66,46,30.08,29.49,18,7,30,0.00
2012-4-27,59.0,47.2,37.0,26.0,22.0,20.0,56,39,22,30.23,30.02,3,2,15,0.00
2012-4-28,54.0,49.0,45.0,46.0,40.5,27.0,88,74,37,30.09,29.88,9,2,18,0.15
2012-4-29,60.0,51.0,45.0,52.0,44.9,39.0,86,79,71,30.17,29.96,3,1,14,0.04
2012-4-30,74.0,64.1,57.0,64.0,59.1,52.0,94,84,66,29.96,29.84,10,2,23,0.59
2012-5-1,70.0,62.2,57.0,66.0,59.2,53.0,95,90,85,29.96,29.76,2,0,10,1.13
2012-5-2,83.0,72.7,60.0,68.0,63.6,59.0,96,75,48,29.91,29.78,9,3,30,0.42
2012-5-3,86.0,76.6,68.0,65.0,62.4,57.0,85,63,45,29.93,29.78,10,3,31,0.00
2012-5-4,82.0,72.1,65.0,66.0,63.5,56.0,91,76,53,29.91,29.78,8,2,18,0.00
2012-5-5,85.0,70.6,56.0,66.0,60.8,53.0,93,74,47,29.91,29.83,2,0,10,0.00
2012-5-6,85.0,72.6,64.0,70.0,64.4,61.0,90,76,57,29.92,29.76,3,1,46,0.00
2012-5-7,73.0,67.4,61.0,66.0,62.2,56.0,90,84,74,29.82,29.71,9,3,21,0.02
2012-5-8,72.0,62.6,55.0,56.0,49.0,43.0,95,66,35,29.85,29.80,16,4,24,0.01
2012-5-9,65.0,57.7,49.0,50.0,46.0,43.0,83,66,49,29.91,29.82,12,5,23,0.04
2012-5-10,70.0,56.6,41.0,47.0,40.2,36.0,93,60,29,30.01,29.90,10,3,21,0.04
2012-5-11,78.0,61.8,45.0,46.0,40.4,38.0,79,50,25,30.11,30.01,7,1,15,0.00
2012-5-12,78.0,65.3,54.0,55.0,46.9,-99.9,77,56,32,30.17,30.09,9,2,12,0.00
2012-5-13,79.0,64.1,50.0,55.0,48.5,41.0,75,58,37,30.14,29.98,13,4,25,0.00
2012-5-14,81.0,66.5,54.0,52.0,40.3,32.0,57,41,18,30.04,29.92,9,2,16,0.00
2012-5-15,84.0,67.9,48.0,48.0,40.6,36.0,77,43,19,29.97,29.82,12,1,20,0.00
2012-5-16,73.0,65.6,54.0,52.0,39.4,27.0,78,40,22,30.04,29.81,21,8,31,0.00
2012-5-17,77.0,62.7,48.0,43.0,37.1,29.0,66,41,23,30.10,29.96,7,1,16,0.00
2012-5-18,83.0,67.7,51.0,55.0,46.2,40.0,71,49,26,30.03,29.90,7,1,14,0.00
2012-5-19,90.0,75.5,61.0,63.0,56.1,-99.9,79,55,32,30.00,29.91,7,1,14,0.00
2012-5-20,90.0,75.9,63.0,68.0,60.4,55.0,86,61,32,30.02,29.88,10,2,30,0.37
2012-5-21,65.0,62.0,54.0,60.0,52.5,41.0,93,72,46,30.07,29.94,20,7,29,0.34
2012-5-22,74.0,60.4,48.0,47.0,43.5,40.0,83,57,35,30.03,29.85,16,5,23,0.01
2012-5-23,81.0,66.1,46.0,52.0,46.6,42.0,90,54,27,29.87,29.71,12,2,23,0.00
2012-5-24,86.0,75.0,61.0,61.0,55.5,49.0,81,54,31,29.77,29.57,21,5,38,0.00
2012-5-25,90.0,80.2,73.0,70.0,61.6,52.0,71,55,33,29.96,29.69,8,2,15,0.00
2012-5-26,91.0,80.9,68.0,69.0,62.5,52.0,77,55,40,30.02,29.91,8,1,16,0.00
2012-5-27,94.0,83.3,73.0,68.0,61.1,53.0,76,51,26,29.94,29.81,9,2,18,0.00
2012-5-28,92.0,82.5,71.0,66.0,61.2,55.0,73,50,29,29.83,29.67,6,2,24,0.00
2012-5-29,83.0,74.3,66.0,65.0,57.5,50.0,88,59,32,29.82,29.64,5,1,16,0.10
2012-5-30,75.0,67.3,56.0,50.0,44.0,40.0,68,45,28,29.85,29.79,13,5,29,0.01
2012-5-31,64.0,56.3,52.0,53.0,48.7,44.0,93,77,58,29.88,29.69,15,7,26,0.54
2012-6-1,61.0,54.7,51.0,51.0,48.5,46.0,94,81,58,29.79,29.67,24,6,26,0.27
2012-6-2,72.0,59.4,50.0,55.0,48.0,-99.9,90,69,42,29.81,29.75,9,2,25,0.01
2012-6-3,81.0,67.6,53.0,58.0,52.5,47.0,94,64,32,29.84,29.74,11,2,23,0.00
2012-6-4,75.0,66.2,60.0,63.0,56.2,47.0,88,71,44,29.84,29.72,14,2,23,0.07
2012-6-5,76.0,64.4,52.0,55.0,49.9,47.0,86,62,39,29.93,29.83,15,3,23,0.01
2012-6-6,77.0,64.1,50.0,51.0,48.2,45.0,90,60,32,30.02,29.93,10,2,24,0.00
2012-6-7,83.0,68.2,53.0,54.0,48.9,45.0,85,55,26,30.07,29.97,8,1,15,0.00
2012-6-8,86.0,70.9,54.0,56.0,50.2,46.0,90,54,25,30.04,29.88,6,1,18,0.00
2012-6-9,87.0,73.8,58.0,58.0,51.0,-99.9,78,50,28,29.94,29.81,7,1,16,0.00
2012-6-10,87.0,77.7,65.0,62.0,59.4,55.0,79,55,39,29.91,29.82,9,3,29,0.00
2012-6-11,83.0,74.7,69.0,70.0,65.1,61.0,85,73,59,29.85,29.75,6,1,23,0.00
2012-6-12,80.0,71.5,64.0,65.0,48.9,39.0,88,49,23,30.04,29.82,16,7,25,0.00
2012-6-13,79.0,67.8,55.0,54.0,49.3,46.0,73,53,36,30.11,30.00,3,1,15,0.00
2012-6-14,86.0,73.0,57.0,53.0,47.3,43.0,64,43,25,30.06,29.92,3,0,16,0.00
2012-6-15,91.0,75.1,57.0,55.0,51.4,47.0,85,48,24,30.03,29.95,2,0,10,0.00
2012-6-16,91.0,77.8,69.0,70.0,62.7,-99.9,78,62,47,30.01,29.85,7,2,20,0.00
2012-6-17,86.0,75.3,68.0,69.0,66.8,65.0,95,77,54,29.91,29.77,14,2,26,0.87
2012-6-18,91.0,80.6,70.0,69.0,66.1,63.0,87,64,43,29.80,29.70,10,3,23,0.09
2012-6-19,91.0,83.4,73.0,68.0,64.3,61.0,69,54,40,29.94,29.83,8,3,20,0.00
2012-6-20,91.0,82.0,71.0,65.0,61.3,57.0,70,51,32,30.01,29.86,9,2,16,0.00
2012-6-21,88.0,77.0,65.0,70.0,64.5,60.0,90,67,48,29.91,29.83,13,3,24,0.08
2012-6-22,83.0,72.0,63.0,62.0,57.2,52.0,91,63,37,29.95,29.89,14,3,16,0.02
2012-6-23,85.0,72.6,59.0,62.0,56.6,53.0,89,61,34,29.98,29.91,5,0,10,0.00
2012-6-24,91.0,77.8,66.0,66.0,61.7,57.0,81,60,34,29.94,29.83,2,0,9,0.00
2012-6-25,80.0,73.7,63.0,66.0,54.2,41.0,82,55,26,29.94,29.83,16,8,25,0.00
2012-6-26,82.0,69.0,54.0,53.0,50.6,49.0,85,55,32,30.00,29.86,8,2,18,0.00
2012-6-27,89.0,74.4,58.0,53.0,51.4,50.0,74,48,27,29.96,29.76,7,2,16,0.00
2012-6-28,99.0,85.1,69.0,72.0,63.6,52.0,71,50,41,29.81,29.72,7,2,25,0.00
2012-6-29,98.0,84.2,78.0,79.0,71.6,67.0,82,67,45,29.80,29.69,26,2,31,0.00
2012-6-30,89.0,79.9,70.0,75.0,67.9,62.0,83,68,53,29.80,29.72,13,2,24,0.02
2012-7-1,92.0,81.1,71.0,75.0,70.9,69.0,92,73,54,29.89,29.79,14,2,25,0.02
2012-7-2,97.0,82.7,70.0,73.0,67.8,62.0,92,64,35,29.94,29.83,6,1,18,0.00
2012-7-3,96.0,83.1,69.0,72.0,66.7,62.0,83,60,35,29.91,29.77,7,1,15,0.00
2012-7-4,100.0,87.4,75.0,73.0,70.3,66.0,84,60,35,29.85,29.79,7,1,18,0.00
2012-7-5,101.0,88.2,73.0,72.0,67.5,61.0,86,55,27,29.88,29.81,10,2,20,0.00
2012-7-6,103.0,89.1,74.0,74.0,69.1,64.0,82,56,29,29.92,29.82,10,2,15,0.00
2012-7-7,104.0,89.4,76.0,75.0,70.8,65.0,84,59,29,29.90,29.81,12,2,18,0.00
2012-7-8,86.0,76.4,70.0,72.0,67.2,57.0,87,74,50,29.98,29.87,15,6,26,0.02
2012-7-9,90.0,77.7,66.0,64.0,59.6,54.0,81,57,32,29.98,29.90,12,3,21,0.01
2012-7-10,90.0,78.6,67.0,63.0,57.5,52.0,73,51,28,30.00,29.94,17,6,24,0.00
2012-7-11,91.0,78.3,65.0,61.0,58.1,56.0,78,53,32,30.04,29.95,10,2,15,0.00
2012-7-12,94.0,81.2,67.0,64.0,58.5,53.0,66,48,27,30.01,29.93,6,1,16,0.00
2012-7-13,93.0,81.7,70.0,69.0,64.7,61.0,85,59,35,30.01,29.90,7,1,20,0.00
2012-7-14,87.0,77.5,71.0,71.0,68.4,65.0,87,74,55,30.01,29.93,8,1,15,0.01
2012-7-15,92.0,79.6,69.0,73.0,69.4,67.0,93,73,48,30.03,29.92,6,1,15,0.01
2012-7-16,94.0,83.2,72.0,72.0,69.2,66.0,89,66,42,29.97,29.80,5,1,16,0.00
2012-7-17,97.0,84.1,76.0,74.0,71.2,69.0,82,67,44,29.83,29.77,6,1,21,0.00
2012-7-18,100.0,89.4,74.0,74.0,70.0,66.0,90,57,34,29.85,29.74,8,2,18,0.00
2012-7-19,97.0,82.8,75.0,75.0,71.7,69.0,86,71,44,29.85,29.72,18,5,26,0.00
2012-7-20,82.0,74.9,70.0,69.0,66.0,61.0,91,75,52,29.99,29.81,16,6,21,0.02
2012-7-21,89.0,76.0,62.0,65.0,61.0,56.0,93,64,33,30.06,29.96,9,2,16,0.02
2012-7-22,95.0,82.4,70.0,66.0,62.1,60.0,82,53,32,30.07,29.95,7,1,15,0.00
2012-7-23,99.0,88.0,77.0,70.0,66.4,60.0,64,50,32,29.98,29.84,9,2,23,0.00
2012-7-24,94.0,85.8,77.0,71.0,68.2,64.0,81,57,37,29.89,29.81,10,3,16,0.00
2012-7-25,102.0,85.9,73.0,75.0,69.7,63.0,93,63,31,29.85,29.58,7,2,20,0.05
2012-7-26,88.0,83.8,76.0,71.0,68.2,65.0,70,60,48,29.72,29.57,10,4,24,0.04
2012-7-27,89.0,78.1,65.0,73.0,63.2,56.0,90,63,36,29.89,29.72,17,4,30,0.06
2012-7-28,85.0,74.1,65.0,64.0,59.8,56.0,88,64,39,30.03,29.89,13,4,20,0.02
2012-7-29,88.0,75.5,61.0,62.0,58.2,56.0,87,59,37,30.05,29.89,5,1,10,0.00
2012-7-30,93.0,85.5,73.0,67.0,63.5,59.0,71,49,36,29.91,29.80,9,2,20,0.00
2012-7-31,93.0,79.8,69.0,72.0,66.1,63.0,87,65,41,29.89,29.77,12,3,18,0.00
2012-8-1,91.0,78.3,63.0,64.0,61.0,58.0,91,59,35,29.89,29.79,12,3,16,0.00
2012-8-2,99.0,81.1,62.0,68.0,57.4,49.0,86,50,19,29.83,29.70,8,1,14,0.00
2012-8-3,94.0,81.7,67.0,68.0,65.0,61.0,91,61,35,29.81,29.75,9,2,21,0.00
2012-8-4,96.0,83.8,73.0,76.0,69.5,60.0,90,65,38,29.85,29.73,12,2,26,0.00
2012-8-5,88.0,78.6,69.0,73.0,63.4,55.0,93,63,36,30.08,29.76,25,5,31,0.83
2012-8-6,89.0,75.0,63.0,61.0,57.5,50.0,90,59,27,30.10,29.94,8,2,14,0.01
2012-8-7,95.0,78.1,62.0,64.0,59.0,55.0,89,58,28,29.96,29.85,10,1,15,0.00
2012-8-8,96.0,79.6,68.0,68.0,63.2,56.0,87,61,27,29.89,29.82,17,3,25,0.03
2012-8-9,89.0,74.3,66.0,70.0,66.2,62.0,94,78,42,29.86,29.67,9,2,20,0.21
2012-8-10,77.0,68.1,60.0,64.0,57.3,49.0,92,71,43,29.90,29.71,19,9,29,0.12
2012-8-11,80.0,66.5,53.0,54.0,47.5,-99.9,85,56,27,29.95,29.88,13,4,24,0.00
2012-8-12,81.0,68.7,55.0,60.0,53.2,47.0,93,62,30,29.98,29.90,6,1,18,0.00
2012-8-13,74.0,66.9,62.0,66.0,62.0,56.0,93,85,64,29.92,29.83,7,1,10,0.28
2012-8-14,81.0,70.1,63.0,62.0,60.3,57.0,93,74,44,29.93,29.84,10,3,16,0.02
2012-8-15,87.0,73.5,60.0,62.0,58.1,53.0,93,63,31,29.92,29.83,7,1,16,0.00
2012-8-16,75.0,69.3,66.0,67.0,62.3,56.0,95,79,57,29.94,29.70,16,2,30,1.50
2012-8-17,76.0,66.0,56.0,66.0,54.6,49.0,96,70,40,29.96,29.87,12,4,20,0.02
2012-8-18,78.0,65.3,52.0,56.0,50.3,45.0,93,63,33,29.98,29.86,10,2,15,0.01
2012-8-19,78.0,66.0,56.0,56.0,52.9,50.0,87,65,39,29.91,29.85,7,0,10,0.00
2012-8-20,81.0,65.0,53.0,61.0,54.8,50.0,94,74,34,29.93,29.85,10,2,24,0.26
2012-8-21,80.0,66.9,55.0,61.0,54.1,47.0,95,69,33,30.03,29.93,8,1,15,0.08
2012-8-22,85.0,70.1,55.0,59.0,54.5,51.0,93,63,31,30.08,29.97,5,1,10,0.01
2012-8-23,89.0,74.9,61.0,63.0,56.3,51.0,83,57,27,30.06,29.97,7,1,9,0.00
2012-8-24,90.0,77.3,63.0,64.0,59.5,56.0,82,58,32,30.00,29.90,5,1,14,0.00
2012-8-25,91.0,78.4,64.0,65.0,61.0,55.0,90,59,30,30.01,29.93,9,2,21,0.00
2012-8-26,85.0,75.7,68.0,71.0,66.2,61.0,94,73,58,30.01,29.88,11,2,18,1.89
2012-8-27,86.0,76.4,68.0,71.0,67.1,60.0,95,76,43,30.00,29.88,14,4,21,2.10
2012-8-28,85.0,73.3,60.0,63.0,59.4,56.0,92,66,37,30.07,29.94,8,2,18,0.01
2012-8-29,86.0,73.9,63.0,64.0,61.4,59.0,88,68,44,30.03,29.92,7,1,14,0.00
2012-8-30,89.0,75.2,63.0,62.0,58.3,53.0,82,60,30,30.01,29.92,6,1,14,0.00
2012-8-31,84.0,76.4,67.0,73.0,67.8,58.0,89,75,67,30.06,29.93,3,0,9,0.00
2012-9-1,82.0,76.7,74.0,75.0,72.5,71.0,95,87,76,29.96,29.80,6,1,20,0.44
2012-9-2,76.0,73.9,73.0,73.0,71.6,70.0,96,93,88,29.80,29.70,6,2,16,0.76
2012-9-3,85.0,76.5,72.0,72.0,70.9,69.0,93,83,64,29.81,29.75,11,3,18,0.01
2012-9-4,90.0,79.0,70.0,75.0,71.0,68.0,95,78,54,29.83,29.75,6,1,9,0.01
2012-9-5,78.0,71.7,67.0,70.0,66.3,63.0,92,83,70,29.85,29.73,24,2,29,0.34
2012-9-6,88.0,75.2,66.0,73.0,66.6,61.0,96,77,48,29.87,29.79,6,1,15,0.01
2012-9-7,70.0,67.0,64.0,67.0,63.9,61.0,95,90,78,29.88,29.63,14,3,35,1.22
2012-9-8,73.0,62.9,55.0,63.0,52.3,48.0,92,71,43,29.88,29.72,16,6,25,0.31
2012-9-9,74.0,63.1,54.0,56.0,52.6,50.0,91,70,44,30.09,29.80,16,5,25,0.00
2012-9-10,77.0,62.8,51.0,54.0,49.9,46.0,94,67,35,30.18,30.07,5,1,9,0.00
2012-9-11,81.0,67.0,54.0,57.0,52.8,50.0,92,64,38,30.16,30.05,9,2,18,0.00
2012-9-12,84.0,70.7,57.0,62.0,56.4,53.0,89,63,36,30.16,30.07,7,1,16,0.00
2012-9-13,81.0,71.9,62.0,64.0,59.7,56.0,84,66,49,30.21,30.09,16,3,31,0.00
2012-9-14,72.0,62.0,55.0,57.0,51.7,43.0,93,72,37,30.29,30.19,14,5,21,0.28
2012-9-15,76.0,63.0,51.0,53.0,49.6,46.0,93,66,36,30.29,30.11,2,0,6,0.06
2012-9-16,78.0,63.6,51.0,55.0,50.9,48.0,94,68,35,30.11,29.94,8,1,16,0.00
2012-9-17,78.0,65.9,56.0,64.0,59.0,52.0,93,80,56,29.95,29.68,5,1,16,0.12
2012-9-18,64.0,56.5,46.0,61.0,44.6,33.0,92,67,33,30.02,29.69,18,8,35,0.13
2012-9-19,70.0,56.3,40.0,44.0,39.4,37.0,93,58,30,30.10,29.91,10,3,20,0.00
2012-9-20,75.0,63.6,52.0,53.0,43.5,36.0,71,50,24,29.92,29.83,8,3,18,0.00
2012-9-21,68.0,55.3,47.0,52.0,46.3,42.0,92,74,44,29.92,29.70,13,1,29,0.42
2012-9-22,58.0,50.3,42.0,52.0,39.4,-99.9,96,72,37,30.16,29.77,24,5,35,0.05
2012-9-23,63.0,49.2,39.0,42.0,36.7,29.0,92,67,29,30.24,30.15,8,2,20,0.01
2012-9-24,69.0,53.1,36.0,41.0,35.7,32.0,92,58,26,30.23,29.93,7,1,16,0.00
2012-9-25,71.0,61.8,55.0,63.0,55.0,41.0,94,79,57,29.94,29.81,7,1,15,0.09
2012-9-26,70.0,65.9,60.0,66.0,62.3,52.0,93,88,74,30.05,29.83,8,1,16,0.33
2012-9-27,75.0,62.9,55.0,54.0,50.0,44.0,80,64,43,30.13,30.03,10,4,18,0.01
2012-9-28,70.0,58.4,49.0,52.0,48.6,46.0,88,71,48,30.10,30.01,10,4,21,0.00
2012-9-29,75.0,59.3,47.0,53.0,47.5,42.0,93,69,31,30.08,29.89,7,2,16,0.00
2012-9-30,71.0,58.8,48.0,53.0,45.4,41.0,88,64,35,29.89,29.81,13,4,24,0.00
2012-10-1,62.0,56.1,49.0,49.0,45.2,42.0,83,68,57,29.85,29.71,9,4,20,0.00
2012-10-2,59.0,57.3,56.0,57.0,51.9,46.0,95,82,65,29.81,29.69,12,6,25,0.09
2012-10-3,70.0,60.6,57.0,59.0,55.9,51.0,96,85,57,30.01,29.81,6,1,16,0.10
2012-10-4,80.0,65.6,53.0,60.0,54.4,49.0,93,70,42,30.11,29.98,10,2,25,0.02
2012-10-5,53.0,45.1,39.0,49.0,42.3,37.0,93,90,80,30.16,30.07,9,2,18,1.00
2012-10-6,50.0,41.2,33.0,37.0,32.8,31.0,93,74,50,30.16,30.09,14,3,23,0.11
2012-10-7,50.0,41.4,33.0,34.0,30.3,27.0,84,66,42,30.19,30.13,9,2,15,0.00
2012-10-8,57.0,43.5,29.0,35.0,30.3,26.0,91,64,36,30.20,30.06,9,2,20,0.00
2012-10-9,63.0,52.2,41.0,44.0,38.8,33.0,79,62,45,30.06,29.85,13,3,25,0.00
2012-10-10,53.0,44.5,35.0,42.0,33.1,24.0,90,67,36,30.20,29.89,20,5,38,0.02
2012-10-11,62.0,47.5,32.0,40.0,33.5,29.0,90,62,35,30.23,30.09,9,2,20,0.01
2012-10-12,58.0,50.6,45.0,43.0,37.1,33.0,81,62,38,30.36,30.14,14,4,26,0.00
2012-10-13,67.0,56.9,45.0,64.0,50.7,35.0,95,80,65,30.23,29.80,9,3,18,0.60
2012-10-14,72.0,65.2,53.0,62.0,57.8,46.0,88,77,58,29.80,29.49,20,9,39,0.19
2012-10-15,61.0,51.0,42.0,46.0,40.4,36.0,90,69,42,29.94,29.77,20,5,26,0.14
2012-10-16,69.0,55.8,40.0,52.0,44.4,38.0,93,68,46,29.94,29.59,15,5,26,0.00
2012-10-17,69.0,62.3,57.0,55.0,51.8,47.0,94,69,57,29.61,29.33,16,6,36,0.87
2012-10-18,59.0,50.9,45.0,55.0,41.3,30.0,94,72,36,29.58,29.36,13,4,29,1.04
2012-10-19,49.0,46.9,45.0,46.0,43.8,42.0,94,89,83,29.66,29.43,9,3,18,0.50
2012-10-20,56.0,47.2,42.0,44.0,41.8,39.0,95,83,56,29.93,29.66,9,2,18,0.31
2012-10-21,71.0,56.1,41.0,51.0,45.8,38.0,95,72,46,30.01,29.91,10,3,20,0.01
2012-10-22,70.0,64.7,60.0,61.0,56.2,50.0,92,74,60,30.02,29.84,13,3,20,0.39
2012-10-23,66.0,63.4,59.0,61.0,56.9,52.0,93,80,64,29.94,29.85,9,3,18,0.75
2012-10-24,77.0,68.2,61.0,64.0,59.1,55.0,82,73,62,29.96,29.85,13,4,18,0.02
2012-10-25,78.0,66.8,45.0,61.0,56.3,42.0,90,70,55,30.03,29.72,17,9,29,0.13
2012-10-26,48.0,43.1,36.0,42.0,34.2,30.0,91,71,56,30.27,30.00,22,10,33,0.40
2012-10-27,50.0,41.5,34.0,35.0,32.3,29.0,87,71,53,30.25,30.15,18,10,24,0.01
2012-10-28,49.0,40.5,33.0,34.0,30.3,28.0,85,68,46,30.21,30.14,19,9,29,0.00
2012-10-29,52.0,42.4,33.0,36.0,31.6,28.0,89,67,45,30.21,29.96,29,13,40,0.00
2012-10-30,46.0,41.3,37.0,30.0,28.0,25.0,71,59,51,29.96,29.72,34,16,44,0.00
2012-10-31,48.0,40.2,33.0,32.0,27.1,21.0,72,60,50,29.85,29.75,19,8,30,0.00
2012-11-1,55.0,42.5,31.0,34.0,24.6,16.0,78,51,26,29.91,29.80,15,3,21,0.00
2012-11-2,51.0,41.3,33.0,34.0,29.8,26.0,81,66,41,30.10,29.82,9,4,16,0.00
2012-11-3,40.0,38.4,36.0,35.0,33.6,30.0,89,83,79,30.16,30.09,10,4,16,0.08
2012-11-4,47.0,37.4,30.0,36.0,30.0,27.0,91,76,50,30.21,30.14,10,2,15,0.06
2012-11-5,45.0,36.0,28.0,31.0,28.0,25.0,92,74,54,30.17,30.07,11,2,16,0.01
2012-11-6,45.0,37.3,27.0,38.0,31.4,24.0,93,80,59,30.08,29.85,7,1,10,0.11
2012-11-7,44.0,42.1,40.0,40.0,38.7,38.0,94,88,79,30.14,29.84,7,2,15,0.15
2012-11-8,47.0,42.3,40.0,39.0,36.4,34.0,91,80,64,30.21,30.09,6,1,15,0.01
2012-11-9,62.0,50.5,38.0,46.0,40.6,34.0,88,70,56,30.11,29.94,19,6,30,0.01
2012-11-10,72.0,61.4,53.0,52.0,46.8,43.0,71,60,43,30.01,29.90,16,8,35,0.01
2012-11-11,68.0,60.4,51.0,53.0,47.9,44.0,92,64,54,29.99,29.80,26,12,45,0.23
2012-11-12,51.0,35.5,29.0,49.0,28.2,22.0,93,75,55,30.37,29.91,18,7,30,0.64
2012-11-13,40.0,32.2,25.0,27.0,23.6,21.0,86,72,51,30.51,30.37,8,1,9,0.01
2012-11-14,42.0,33.5,27.0,28.0,24.2,-99.9,86,70,52,30.53,30.37,9,1,15,0.00
2012-11-15,47.0,34.3,25.0,32.0,26.9,22.0,91,76,48,30.39,30.31,6,1,6,0.01
2012-11-16,51.0,37.8,27.0,35.0,28.2,24.0,92,71,41,30.46,30.36,5,0,8,0.01
2012-11-17,54.0,41.1,28.0,36.0,31.0,25.0,90,69,44,30.54,30.41,9,1,15,0.00
2012-11-18,59.0,43.4,30.0,35.0,31.1,26.0,86,65,36,30.41,30.30,7,1,14,0.00
2012-11-19,58.0,46.8,36.0,42.0,36.6,31.0,89,69,47,30.30,30.09,5,1,10,0.02
2012-11-20,56.0,51.9,49.0,47.0,43.1,38.0,84,72,61,30.13,30.03,8,1,9,0.02
2012-11-21,60.0,47.4,36.0,49.0,42.1,34.0,95,83,62,30.24,30.12,5,0,9,0.00
2012-11-22,61.0,52.4,43.0,51.0,44.7,41.0,93,76,55,30.13,29.87,17,7,26,0.09
2012-11-23,54.0,35.2,24.0,51.0,24.8,15.0,88,66,54,30.24,29.88,28,13,43,0.08
2012-11-24,31.0,27.5,24.0,21.0,18.6,16.0,76,69,61,30.28,30.04,13,4,18,0.00
2012-11-25,47.0,38.3,28.0,31.0,26.6,22.0,78,63,48,30.04,29.86,10,3,21,0.00
2012-11-26,43.0,34.7,29.0,28.0,24.6,19.0,85,67,47,30.31,30.03,14,5,25,0.00
2012-11-27,37.0,29.5,21.0,22.0,19.0,16.0,83,66,48,30.41,30.29,9,3,10,0.00
2012-11-28,45.0,34.2,25.0,26.0,22.7,19.0,80,64,45,30.40,30.28,7,1,16,0.00
2012-11-29,51.0,40.6,30.0,34.0,28.9,22.0,74,63,50,30.32,30.09,18,5,26,0.00
2012-11-30,58.0,46.1,38.0,38.0,33.0,27.0,84,61,44,30.11,30.02,10,2,20,0.00
2012-12-1,63.0,51.8,39.0,51.0,43.8,35.0,88,75,60,30.12,29.93,18,7,30,0.00
2012-12-2,66.0,59.5,56.0,56.0,52.7,47.0,93,78,61,30.02,29.88,16,4,24,0.02
2012-12-3,71.0,64.0,57.0,60.0,57.9,55.0,94,81,64,30.00,29.83,18,8,33,0.01
2012-12-4,62.0,51.0,41.0,56.0,44.9,35.0,92,80,61,30.21,29.88,15,4,24,0.18
2012-12-5,44.0,38.6,33.0,35.0,29.9,28.0,84,71,56,30.39,30.20,9,3,20,0.01
2012-12-6,49.0,39.1,32.0,38.0,30.5,-99.9,84,75,63,30.20,29.92,8,2,14,0.00
2012-12-7,47.0,44.8,44.0,45.0,42.7,38.0,95,92,79,29.93,29.80,11,3,15,0.43
2012-12-8,45.0,42.2,38.0,44.0,40.2,35.0,96,93,87,30.01,29.79,10,3,18,0.02
2012-12-9,50.0,43.2,39.0,49.0,41.5,36.0,96,93,87,30.01,29.68,12,5,25,0.33
2012-12-10,40.0,31.2,29.0,36.0,26.9,23.0,87,84,79,29.97,29.73,14,6,25,0.03
2012-12-11,35.0,29.4,23.0,25.0,22.7,20.0,89,77,57,30.21,29.97,10,3,20,0.00
2012-12-12,44.0,33.0,23.0,28.0,24.1,19.0,86,71,52,30.35,30.20,10,2,16,0.00
2012-12-13,46.0,37.9,30.0,29.0,26.0,23.0,75,63,45,30.34,30.15,13,6,24,0.00
2012-12-14,50.0,40.9,32.0,35.0,29.8,25.0,76,65,54,30.22,30.03,10,2,15,0.00
2012-12-15,54.0,47.7,42.0,51.0,42.1,30.0,92,81,59,30.03,29.60,24,8,39,0.23
2012-12-16,53.0,46.5,40.0,50.0,42.7,36.0,93,87,79,29.71,29.61,10,4,21,0.01
2012-12-17,40.0,37.5,34.0,36.0,34.4,32.0,93,88,84,29.72,29.59,8,4,14,0.15
2012-12-18,45.0,38.3,34.0,38.0,33.2,30.0,93,82,73,29.81,29.58,21,7,30,0.09
2012-12-19,42.0,38.4,34.0,39.0,33.7,30.0,90,83,79,30.03,29.67,14,5,23,0.11
2012-12-20,54.0,41.3,29.0,51.0,38.3,25.0,95,89,70,29.68,29.11,37,14,51,1.36
2012-12-21,29.0,24.8,19.0,25.0,18.5,13.0,83,77,70,30.22,29.55,33,12,48,0.01
2012-12-22,32.0,24.3,16.0,22.0,16.7,12.0,83,73,62,30.26,29.94,10,3,15,0.00
2012-12-23,38.0,30.3,24.0,30.0,24.7,19.0,90,80,69,29.96,29.88,8,2,14,0.01
2012-12-24,33.0,31.0,30.0,29.0,26.4,25.0,87,83,73,30.04,29.77,12,5,23,0.01
2012-12-25,36.0,32.0,30.0,26.0,24.9,23.0,86,75,62,30.23,30.04,19,8,26,0.00
2012-12-26,32.0,29.8,28.0,28.0,25.2,22.0,93,83,72,30.04,29.84,28,17,39,0.00
2012-12-27,31.0,29.4,28.0,25.0,23.9,23.0,84,80,77,30.18,30.03,11,3,20,0.00
2012-12-28,32.0,30.9,30.0,27.0,26.0,25.0,88,82,80,30.12,29.83,7,2,15,0.00
2012-12-29,31.0,27.7,20.0,29.0,23.4,15.0,92,84,73,30.27,29.81,18,7,30,0.00
2012-12-30,30.0,23.5,13.0,21.0,16.9,9.0,85,76,68,30.40,30.19,12,5,21,0.00
2012-12-31,35.0,31.1,25.0,30.0,25.8,21.0,91,80,68,30.19,30.04,9,2,20,0.07
2013-1-1,25.0,20.3,13.0,21.0,14.2,6.0,85,77,68,30.22,30.06,14,4,24,0.01